createdAt,value
2023-01-10T00:00:35.476Z,91.30
2023-01-10T00:03:05.331Z,91.30
2023-01-10T00:05:32.579Z,91.30
2023-01-10T00:07:59.621Z,91.40
2023-01-10T00:10:26.570Z,91.50
2023-01-10T00:13:12.071Z,91.60
2023-01-10T00:15:39.613Z,91.40
2023-01-10T00:18:06.543Z,91.40
2023-01-10T00:20:33.529Z,91.40
2023-01-10T00:23:00.808Z,91.30
2023-01-10T00:25:27.821Z,91.40
2023-01-10T00:28:04.587Z,91.40
2023-01-10T00:30:33.801Z,91.50
2023-01-10T00:33:00.893Z,91.50
2023-01-10T00:35:27.835Z,91.60
2023-01-10T00:38:01.323Z,91.50
2023-01-10T00:40:28.288Z,91.30
2023-01-10T00:43:13.459Z,91.20
2023-01-10T00:45:40.398Z,91.30
2023-01-10T00:48:07.348Z,91.20
2023-01-10T00:50:34.294Z,91.30
2023-01-10T00:53:01.152Z,91.70
2023-01-10T00:55:28.591Z,91.20
2023-01-10T00:57:55.582Z,91.30
2023-01-10T01:00:22.615Z,91.20
2023-01-10T01:02:51.717Z,91.10
2023-01-10T01:05:19.400Z,91.10
2023-01-10T01:07:52.880Z,91.00
2023-01-10T01:10:29.302Z,90.90
2023-01-10T01:13:05.796Z,90.90
2023-01-10T01:15:35.224Z,90.80
2023-01-10T01:18:02.611Z,90.50
2023-01-10T01:20:30.475Z,90.40
2023-01-10T01:22:57.475Z,90.20
2023-01-10T01:25:24.767Z,90.00
2023-01-10T01:27:51.761Z,89.60
2023-01-10T01:30:18.813Z,89.30
2023-01-10T01:32:45.791Z,89.10
2023-01-10T01:35:15.621Z,89.50
2023-01-10T01:37:43.488Z,89.20
2023-01-10T01:40:14.653Z,89.30
2023-01-10T01:42:42.359Z,89.10
2023-01-10T01:45:09.455Z,89.00
2023-01-10T01:48:06.172Z,88.70
2023-01-10T01:50:39.842Z,88.30
2023-01-10T01:53:17.151Z,88.10
2023-01-10T01:55:45.789Z,87.80
2023-01-10T01:58:18.075Z,87.40
2023-01-10T02:00:45.149Z,87.10
2023-01-10T02:03:14.521Z,87.40
2023-01-10T02:05:43.977Z,87.10
2023-01-10T02:08:12.662Z,87.00
2023-01-10T02:10:48.988Z,86.30
2023-01-10T02:13:19.572Z,85.70
2023-01-10T02:15:46.656Z,85.30
2023-01-10T02:18:14.313Z,85.20
2023-01-10T02:21:04.742Z,85.10
2023-01-10T02:23:56.749Z,85.00
2023-01-10T02:26:29.652Z,85.10
2023-01-10T02:29:22.424Z,85.40
2023-01-10T02:32:08.959Z,85.60
2023-01-10T02:34:58.885Z,85.40
2023-01-10T02:37:30.917Z,85.40
2023-01-10T02:40:06.699Z,85.40
2023-01-10T02:42:49.759Z,85.40
2023-01-10T02:45:34.485Z,85.40
2023-01-10T02:48:01.502Z,85.10
2023-01-10T02:50:44.104Z,85.90
2023-01-10T02:53:44.743Z,85.20
2023-01-10T02:56:17.544Z,85.30
2023-01-10T02:59:12.217Z,85.30
2023-01-10T03:01:48.091Z,85.30
2023-01-10T03:04:28.455Z,85.00
2023-01-10T03:07:18.983Z,84.60
2023-01-10T03:10:00.978Z,84.50
2023-01-10T03:12:51.490Z,84.50
2023-01-10T03:15:20.695Z,84.50
2023-01-10T03:17:54.174Z,84.40
2023-01-10T03:20:23.276Z,84.30
2023-01-10T03:22:51.899Z,84.20
2023-01-10T03:25:23.513Z,84.00
2023-01-10T03:28:29.004Z,83.80
2023-01-10T03:31:04.104Z,83.60
2023-01-10T03:33:33.466Z,83.30
2023-01-10T03:36:03.274Z,83.40
2023-01-10T03:38:40.417Z,83.30
2023-01-10T03:41:21.684Z,83.20
2023-01-10T03:44:23.545Z,83.00
2023-01-10T03:46:59.189Z,82.80
2023-01-10T03:49:28.849Z,82.80
2023-01-10T03:51:59.908Z,82.70
2023-01-10T03:54:32.274Z,82.40
2023-01-10T03:57:05.345Z,82.20
2023-01-10T04:02:24.553Z,81.80
2023-01-10T04:04:54.999Z,81.60
2023-01-10T04:07:28.125Z,81.50
2023-01-10T04:10:00.886Z,81.60
2023-01-10T04:12:31.869Z,81.60
2023-01-10T04:15:07.727Z,81.80
2023-01-10T04:17:36.149Z,82.00
2023-01-10T04:20:07.710Z,82.10
2023-01-10T04:22:48.135Z,82.10
2023-01-10T04:25:30.350Z,81.80
2023-01-10T04:28:37.127Z,81.80
2023-01-10T04:31:05.883Z,81.80
2023-01-10T04:33:34.607Z,81.80
2023-01-10T04:36:11.982Z,81.80
2023-01-10T04:38:41.303Z,81.80
2023-01-10T04:41:11.463Z,81.70
2023-01-10T04:43:42.294Z,81.50
2023-01-10T04:46:10.653Z,81.40
2023-01-10T04:48:43.217Z,81.40
2023-01-10T04:51:21.528Z,81.40
2023-01-10T04:53:59.787Z,81.20
2023-01-10T04:56:59.561Z,81.20
2023-01-10T04:59:29.834Z,81.10
2023-01-10T05:02:07.030Z,81.00
2023-01-10T05:04:43.239Z,81.00
2023-01-10T05:07:11.293Z,80.80
2023-01-10T05:09:44.375Z,80.90
2023-01-10T05:12:12.455Z,81.00
2023-01-10T05:18:11.880Z,81.00
2023-01-10T05:20:43.018Z,81.00
2023-01-10T05:23:17.040Z,80.80
2023-01-10T05:25:53.266Z,80.80
2023-01-10T05:28:25.094Z,81.00
2023-01-10T05:30:59.083Z,80.90
2023-01-10T05:33:43.178Z,80.80
2023-01-10T05:36:23.137Z,80.80
2023-01-10T05:38:56.048Z,80.50
2023-01-10T05:41:25.810Z,80.40
2023-01-10T05:43:54.891Z,80.50
2023-01-10T05:46:28.869Z,81.10
2023-01-10T05:49:07.943Z,80.00
2023-01-10T05:51:47.814Z,80.00
2023-01-10T05:54:18.172Z,80.00
2023-01-10T05:56:49.021Z,79.90
2023-01-10T05:59:28.299Z,79.90
2023-01-10T06:02:04.105Z,79.90
2023-01-10T06:04:34.588Z,79.80
2023-01-10T06:07:09.945Z,79.90
2023-01-10T06:09:39.189Z,79.80
2023-01-10T06:12:07.435Z,79.70
2023-01-10T06:14:45.340Z,79.80
2023-01-10T06:17:13.383Z,79.90
2023-01-10T06:19:40.321Z,79.90
2023-01-10T06:22:07.310Z,79.80
2023-01-10T06:24:34.341Z,79.80
2023-01-10T06:27:01.274Z,79.70
2023-01-10T06:29:28.178Z,79.60
2023-01-10T06:31:55.171Z,79.60
2023-01-10T06:34:22.146Z,79.60
2023-01-10T06:36:49.186Z,79.70
2023-01-10T06:39:16.154Z,79.60
2023-01-10T06:41:43.182Z,79.60
2023-01-10T06:44:10.133Z,79.80
2023-01-10T06:46:37.104Z,79.60
2023-01-10T06:49:05.374Z,79.60
2023-01-10T06:51:32.363Z,79.50
2023-01-10T06:53:59.385Z,79.60
2023-01-10T06:56:26.356Z,79.70
2023-01-10T06:58:53.327Z,79.70
2023-01-10T07:01:21.988Z,79.70
2023-01-10T07:03:49.235Z,79.60
2023-01-10T07:06:16.361Z,79.60
2023-01-10T07:08:45.702Z,79.40
2023-01-10T07:11:15.268Z,79.30
2023-01-10T07:13:42.366Z,79.10
2023-01-10T07:16:12.194Z,79.00
2023-01-10T07:18:41.470Z,79.00
2023-01-10T07:21:08.915Z,78.80
2023-01-10T07:23:35.987Z,78.80
2023-01-10T07:26:05.451Z,78.80
2023-01-10T07:28:34.357Z,78.90
2023-01-10T07:31:03.020Z,78.80
2023-01-10T07:33:31.233Z,78.90
2023-01-10T07:36:00.188Z,78.80
2023-01-10T07:38:27.187Z,78.70
2023-01-10T07:40:54.165Z,78.80
2023-01-10T07:43:21.774Z,78.60
2023-01-10T07:45:48.803Z,78.50
2023-01-10T07:48:15.691Z,78.50
2023-01-10T07:50:42.620Z,78.40
2023-01-10T07:53:09.775Z,78.20
2023-01-10T07:55:39.202Z,78.20
2023-01-10T07:58:08.025Z,78.10
2023-01-10T08:00:36.095Z,78.00
2023-01-10T08:03:03.190Z,77.90
2023-01-10T08:05:30.276Z,78.00
2023-01-10T08:08:00.239Z,78.00
2023-01-10T08:10:27.502Z,78.10
2023-01-10T08:12:54.932Z,78.10
2023-01-10T08:15:22.141Z,78.20
2023-01-10T08:17:49.092Z,78.20
2023-01-10T08:20:16.232Z,78.30
2023-01-10T08:22:43.245Z,78.40
2023-01-10T08:25:10.869Z,78.50
2023-01-10T08:27:38.122Z,78.50
2023-01-10T08:30:05.807Z,78.60
2023-01-10T08:32:32.869Z,78.60
2023-01-10T08:34:59.767Z,78.50
2023-01-10T08:37:26.717Z,78.30
2023-01-10T08:39:53.648Z,78.00
2023-01-10T08:42:20.751Z,77.90
2023-01-10T08:44:47.946Z,77.80
2023-01-10T08:47:15.213Z,77.80
2023-01-10T08:49:42.321Z,77.80
2023-01-10T08:52:09.890Z,77.90
2023-01-10T08:54:36.872Z,77.90
2023-01-10T08:57:03.942Z,77.90
2023-01-10T08:59:30.823Z,78.00
2023-01-10T09:01:59.834Z,77.90
2023-01-10T09:04:28.683Z,77.80
2023-01-10T09:06:56.270Z,77.60
2023-01-10T09:09:23.242Z,77.40
2023-01-10T09:11:50.194Z,77.10
2023-01-10T09:14:17.117Z,76.70
2023-01-10T09:16:44.211Z,76.50
2023-01-10T09:19:11.401Z,76.20
2023-01-10T09:21:38.290Z,76.20
2023-01-10T09:24:05.477Z,76.20
2023-01-10T09:26:32.574Z,76.00
2023-01-10T09:28:59.720Z,76.10
2023-01-10T09:31:26.748Z,76.00
2023-01-10T09:33:53.670Z,76.00
2023-01-10T09:36:22.029Z,76.00
2023-01-10T09:38:49.210Z,76.00
2023-01-10T09:41:35.492Z,76.40
2023-01-10T09:44:02.442Z,76.40
2023-01-10T09:46:49.322Z,76.60
2023-01-10T09:49:52.500Z,76.70
2023-01-10T09:52:31.317Z,76.80
2023-01-10T09:55:00.991Z,77.00
2023-01-10T09:57:28.050Z,77.10
2023-01-10T09:59:56.711Z,77.20
2023-01-10T10:02:35.075Z,77.30
2023-01-10T10:05:11.583Z,77.30
2023-01-10T10:07:38.743Z,77.40
2023-01-10T10:10:07.931Z,77.40
2023-01-10T10:13:11.628Z,77.30
2023-01-10T10:15:54.328Z,77.30
2023-01-10T10:18:39.747Z,77.20
2023-01-10T10:21:07.360Z,77.00
2023-01-10T10:23:57.939Z,77.20
2023-01-10T10:26:27.913Z,77.30
2023-01-10T10:29:06.230Z,77.50
2023-01-10T10:32:01.474Z,77.60
2023-01-10T10:34:36.692Z,77.50
2023-01-10T10:37:15.589Z,77.60
2023-01-10T10:39:48.832Z,77.40
2023-01-10T10:42:18.001Z,77.40
2023-01-10T10:45:33.913Z,77.30
2023-01-10T10:48:11.596Z,76.70
2023-01-10T10:50:52.581Z,76.00
2023-01-10T10:53:23.983Z,75.20
2023-01-10T10:55:53.080Z,74.70
2023-01-10T10:58:24.096Z,74.40
2023-01-10T11:00:52.456Z,74.10
2023-01-10T11:03:49.704Z,73.90
2023-01-10T11:06:22.995Z,73.40
2023-01-10T11:08:53.325Z,73.20
2023-01-10T11:11:34.450Z,72.70
2023-01-10T11:14:07.233Z,72.40
2023-01-10T11:16:39.030Z,71.90
2023-01-10T11:19:21.256Z,71.60
2023-01-10T11:21:55.671Z,71.20
2023-01-10T11:24:27.643Z,70.60
2023-01-10T11:26:56.635Z,70.20
2023-01-10T11:29:29.405Z,70.20
2023-01-10T11:31:57.320Z,70.20
2023-01-10T11:34:29.878Z,70.10
2023-01-10T11:37:05.996Z,70.20
2023-01-10T11:39:33.606Z,70.00
2023-01-10T11:42:30.538Z,69.90
2023-01-10T11:45:19.658Z,69.50
2023-01-10T11:47:57.796Z,69.40
2023-01-10T11:50:28.245Z,69.40
2023-01-10T11:52:56.599Z,69.10
2023-01-10T11:55:27.585Z,68.50
2023-01-10T11:57:58.544Z,68.20
2023-01-10T12:00:43.130Z,67.90
2023-01-10T12:04:16.807Z,67.90
2023-01-10T12:06:48.260Z,67.80
2023-01-10T12:09:37.937Z,68.40
2023-01-10T12:12:28.985Z,68.70
2023-01-10T12:15:07.853Z,68.00
2023-01-10T12:17:43.023Z,67.50
2023-01-10T12:20:15.308Z,67.30
2023-01-10T12:22:59.243Z,67.20
2023-01-10T12:25:43.602Z,66.90
2023-01-10T12:28:30.416Z,66.60
2023-01-10T12:31:06.569Z,66.20
2023-01-10T12:33:41.663Z,66.40
2023-01-10T12:36:51.894Z,66.20
2023-01-10T12:39:37.123Z,66.00
2023-01-10T12:43:01.407Z,66.40
2023-01-10T12:45:36.776Z,66.10
2023-01-10T12:48:14.381Z,66.00
2023-01-10T12:50:46.270Z,65.60
2023-01-10T12:53:32.268Z,65.10
2023-01-10T12:56:11.779Z,64.20
2023-01-10T12:59:02.835Z,63.80
2023-01-10T13:01:55.538Z,62.80
2023-01-10T13:04:27.961Z,62.30
2023-01-10T13:07:05.132Z,62.50
2023-01-10T13:09:44.995Z,62.40
2023-01-10T13:12:41.679Z,62.00
2023-01-10T13:15:21.830Z,61.40
2023-01-10T13:18:15.066Z,62.00
2023-01-10T13:20:53.594Z,62.00
2023-01-10T13:23:45.803Z,62.10
2023-01-10T13:26:20.533Z,62.50
2023-01-10T13:29:02.059Z,62.60
2023-01-10T13:31:38.437Z,62.40
2023-01-10T13:34:26.283Z,62.60
2023-01-10T13:39:55.118Z,63.00
2023-01-10T13:43:04.172Z,63.00
2023-01-10T13:45:38.639Z,62.80
2023-01-10T13:48:30.711Z,62.90
2023-01-10T13:51:25.192Z,62.60
2023-01-10T13:54:18.350Z,62.50
2023-01-10T13:57:09.261Z,61.60
2023-01-10T14:00:26.506Z,60.80
2023-01-10T14:03:07.085Z,60.30
2023-01-10T14:05:36.281Z,60.00
2023-01-10T14:08:18.224Z,60.20
2023-01-10T14:11:11.233Z,59.90
2023-01-10T14:14:14.064Z,59.80
2023-01-10T14:17:17.733Z,60.00
2023-01-10T14:22:36.677Z,59.80
2023-01-10T14:25:28.086Z,60.00
2023-01-10T14:28:19.347Z,60.00
2023-01-10T14:31:04.789Z,59.90
2023-01-10T14:33:59.660Z,60.10
2023-01-10T14:36:51.197Z,60.20
2023-01-10T14:39:42.294Z,60.00
2023-01-10T14:42:25.063Z,59.90
2023-01-10T14:45:13.187Z,59.70
2023-01-10T14:47:58.481Z,59.70
2023-01-10T14:50:32.720Z,59.50
2023-01-10T14:53:05.194Z,59.50
2023-01-10T14:55:45.497Z,59.30
2023-01-10T14:58:25.538Z,59.20
2023-01-10T15:00:59.230Z,59.40
2023-01-10T15:03:35.411Z,59.70
2023-01-10T15:06:08.913Z,59.80
2023-01-10T15:08:35.941Z,59.90
2023-01-10T15:11:06.660Z,59.90
2023-01-10T15:13:38.900Z,60.40
2023-01-10T15:16:15.266Z,59.70
2023-01-10T15:18:51.663Z,59.70
2023-01-10T15:21:26.017Z,59.70
2023-01-10T15:24:00.733Z,59.50
2023-01-10T15:26:33.367Z,59.60
2023-01-10T15:29:24.373Z,59.50
2023-01-10T15:31:55.386Z,59.40
2023-01-10T15:34:26.738Z,59.70
2023-01-10T15:36:59.787Z,59.40
2023-01-10T15:39:30.840Z,59.40
2023-01-10T15:42:03.991Z,59.10
2023-01-10T15:44:40.576Z,58.90
2023-01-10T15:47:37.205Z,58.70
2023-01-10T15:50:28.354Z,58.60
2023-01-10T15:52:57.038Z,58.70
2023-01-10T15:55:38.137Z,58.90
2023-01-10T15:58:24.065Z,58.80
2023-01-10T16:00:52.951Z,58.80
2023-01-10T16:03:37.064Z,58.80
2023-01-10T16:06:12.426Z,58.50
2023-01-10T16:11:59.528Z,58.50
2023-01-10T16:14:27.552Z,58.50
2023-01-10T16:16:54.317Z,58.50
2023-01-10T16:19:21.226Z,58.20
2023-01-10T16:21:57.616Z,57.90
2023-01-10T16:24:29.488Z,57.80
2023-01-10T16:27:02.930Z,57.70
2023-01-10T16:29:29.837Z,57.40
2023-01-10T16:31:57.009Z,57.50
2023-01-10T16:34:25.993Z,57.70
2023-01-10T16:36:53.239Z,57.90
2023-01-10T16:39:22.039Z,57.60
2023-01-10T16:42:08.121Z,57.40
2023-01-10T16:44:35.168Z,57.30
2023-01-10T16:47:04.886Z,57.10
2023-01-10T16:49:33.346Z,57.00
2023-01-10T16:52:00.235Z,56.90
2023-01-10T16:54:28.239Z,57.00
2023-01-10T16:56:55.865Z,56.70
2023-01-10T16:59:23.054Z,56.50
2023-01-10T17:01:52.088Z,56.60
2023-01-10T17:04:28.358Z,56.50
2023-01-10T17:06:56.662Z,56.30
2023-01-10T17:09:29.329Z,56.30
2023-01-10T17:12:06.945Z,56.20
2023-01-10T17:14:36.431Z,56.00
2023-01-10T17:17:04.446Z,56.00
2023-01-10T17:19:31.888Z,55.90
2023-01-10T17:22:00.516Z,55.50
2023-01-10T17:24:29.775Z,55.30
2023-01-10T17:26:56.828Z,55.20
2023-01-10T17:29:23.886Z,55.10
2023-01-10T17:31:51.143Z,55.10
2023-01-10T17:34:18.242Z,55.00
2023-01-10T17:36:45.254Z,54.90
2023-01-10T17:39:12.240Z,54.90
2023-01-10T17:41:39.246Z,55.10
2023-01-10T17:44:06.259Z,54.60
2023-01-10T17:46:33.367Z,54.50
2023-01-10T17:49:02.337Z,54.20
2023-01-10T17:51:32.364Z,53.80
2023-01-10T17:53:59.865Z,53.70
2023-01-10T17:56:26.795Z,53.80
2023-01-10T17:58:53.774Z,53.70
2023-01-10T18:01:25.146Z,53.70
2023-01-10T18:03:53.043Z,53.60
2023-01-10T18:06:25.183Z,53.50
2023-01-10T18:08:53.357Z,53.30
2023-01-10T18:11:21.736Z,53.20
2023-01-10T18:13:49.149Z,53.10
2023-01-10T18:16:16.126Z,53.10
2023-01-10T18:18:43.115Z,53.00
2023-01-10T18:21:15.043Z,53.20
2023-01-10T18:23:42.061Z,53.20
2023-01-10T18:26:11.204Z,53.00
2023-01-10T18:28:43.544Z,52.90
2023-01-10T18:31:18.457Z,53.10
2023-01-10T18:33:46.897Z,52.90
2023-01-10T18:36:19.074Z,52.40
2023-01-10T18:38:46.588Z,52.40
2023-01-10T18:41:15.397Z,52.40
2023-01-10T18:43:42.485Z,52.30
2023-01-10T18:46:18.331Z,52.30
2023-01-10T18:48:46.660Z,52.20
2023-01-10T18:51:19.244Z,52.20
2023-01-10T18:53:47.734Z,52.30
2023-01-10T18:56:16.182Z,52.20
2023-01-10T18:58:43.415Z,51.80
2023-01-10T19:01:13.242Z,51.70
2023-01-10T19:03:40.488Z,51.50
2023-01-10T19:06:11.273Z,51.30
2023-01-10T19:08:42.663Z,50.80
2023-01-10T19:11:14.289Z,50.70
2023-01-10T19:13:46.639Z,50.80
2023-01-10T19:16:14.968Z,50.80
2023-01-10T19:18:43.292Z,50.80
2023-01-10T19:21:15.617Z,50.70
2023-01-10T19:23:48.691Z,50.50
2023-01-10T19:26:16.071Z,50.10
2023-01-10T19:28:44.308Z,49.90
2023-01-10T19:31:19.100Z,50.20
2023-01-10T19:33:48.130Z,50.00
2023-01-10T19:36:16.096Z,50.10
2023-01-10T19:38:43.604Z,50.20
2023-01-10T19:41:11.137Z,50.30
2023-01-10T19:43:38.178Z,50.30
2023-01-10T19:46:07.156Z,50.50
2023-01-10T19:48:38.392Z,50.40
2023-01-10T19:51:09.467Z,50.40
2023-01-10T19:53:39.251Z,50.20
2023-01-10T19:56:10.130Z,50.20
2023-01-10T19:58:39.118Z,50.20
2023-01-10T20:01:11.165Z,50.20
2023-01-10T20:03:39.135Z,50.10
2023-01-10T20:06:08.357Z,49.90
2023-01-10T20:08:35.722Z,49.90
2023-01-10T20:11:06.819Z,49.80
2023-01-10T20:13:36.231Z,49.50
2023-01-10T20:16:04.474Z,49.50
2023-01-10T20:18:31.907Z,49.80
2023-01-10T20:20:59.341Z,49.90
2023-01-10T20:23:26.233Z,50.10
2023-01-10T20:26:06.259Z,50.00
2023-01-10T20:28:34.437Z,49.80
2023-01-10T20:31:02.507Z,49.80
2023-01-10T20:33:29.748Z,49.70
2023-01-10T20:36:05.157Z,49.90
2023-01-10T20:38:34.673Z,50.00
2023-01-10T20:41:05.155Z,50.10
2023-01-10T20:43:32.390Z,50.20
2023-01-10T20:46:08.434Z,50.30
2023-01-10T20:48:35.456Z,50.40
2023-01-10T20:51:03.517Z,50.40
2023-01-10T20:53:30.798Z,50.50
2023-01-10T20:56:05.927Z,50.70
2023-01-10T20:58:36.343Z,50.80
2023-01-10T21:01:07.603Z,51.00
2023-01-10T21:03:34.903Z,51.00
2023-01-10T21:06:02.681Z,51.20
2023-01-10T21:08:30.228Z,51.30
2023-01-10T21:10:57.801Z,51.40
2023-01-10T21:13:25.671Z,51.40
2023-01-10T21:15:57.416Z,51.50
2023-01-10T21:18:31.090Z,51.60
2023-01-10T21:20:58.469Z,51.80
2023-01-10T21:23:26.928Z,52.00
2023-01-10T21:25:54.526Z,52.00
2023-01-10T21:28:21.988Z,52.30
2023-01-10T21:30:48.933Z,52.80
2023-01-10T21:33:17.023Z,53.30
2023-01-10T21:35:52.044Z,53.70
2023-01-10T21:38:19.079Z,54.30
2023-01-10T21:40:46.164Z,54.80
2023-01-10T21:43:13.274Z,55.40
2023-01-10T21:45:40.186Z,56.20
2023-01-10T21:48:07.201Z,56.80
2023-01-10T21:50:34.196Z,57.30
2023-01-10T21:53:01.343Z,57.70
2023-01-10T21:55:28.515Z,58.00
2023-01-10T21:57:55.413Z,58.40
2023-01-10T22:00:22.414Z,58.60
2023-01-10T22:02:49.434Z,58.80
2023-01-10T22:05:16.436Z,59.00
2023-01-10T22:07:44.925Z,59.10
2023-01-10T22:10:12.447Z,59.70
2023-01-10T22:12:39.421Z,59.20
2023-01-10T22:15:07.039Z,59.20
2023-01-10T22:17:33.974Z,59.20
2023-01-10T22:20:00.891Z,59.20
2023-01-10T22:22:27.838Z,59.30
2023-01-10T22:24:54.785Z,59.40
2023-01-10T22:27:21.679Z,59.60
2023-01-10T22:29:48.697Z,59.80
2023-01-10T22:32:15.762Z,60.00
2023-01-10T22:34:42.723Z,60.30
2023-01-10T22:37:09.647Z,60.40
2023-01-10T22:39:36.599Z,60.70
2023-01-10T22:42:03.589Z,61.00
2023-01-10T22:44:30.647Z,61.20
2023-01-10T22:46:57.523Z,61.40
2023-01-10T22:49:24.521Z,61.80
2023-01-10T22:51:51.374Z,62.10
2023-01-10T22:54:18.503Z,62.40
2023-01-10T22:56:46.738Z,62.60
2023-01-10T22:59:14.158Z,62.80
2023-01-10T23:01:41.317Z,63.00
2023-01-10T23:04:08.397Z,63.20
2023-01-10T23:06:35.336Z,63.30
2023-01-10T23:09:02.297Z,63.50
2023-01-10T23:11:29.275Z,63.90
2023-01-10T23:13:56.275Z,64.10
2023-01-10T23:16:29.718Z,64.30
2023-01-10T23:19:00.813Z,64.50
2023-01-10T23:21:30.942Z,64.70
2023-01-10T23:23:57.969Z,64.80
2023-01-10T23:26:25.078Z,65.00
2023-01-10T23:28:52.759Z,65.10
2023-01-10T23:31:22.551Z,65.20
2023-01-10T23:33:50.480Z,65.30
2023-01-10T23:36:17.684Z,65.40
2023-01-10T23:38:44.766Z,65.60
2023-01-10T23:41:12.439Z,65.90
2023-01-10T23:43:39.568Z,66.20
2023-01-10T23:46:07.135Z,66.30
2023-01-10T23:48:34.736Z,66.40
2023-01-10T23:51:01.755Z,66.50
2023-01-10T23:53:28.746Z,66.70
2023-01-10T23:55:56.864Z,67.00
2023-01-10T23:58:24.141Z,67.40
